Time;durP1;ratioP1;P1;durP2;ratioP2;P2;SDS_P1;SDS_P2;PMS_P1;PMS_P2;Temp;Humidity;BMP_temperature;BMP_pressure;BME280_temperature;BME280_humidity;BME280_pressure;Samples;Min_cycle;Max_cycle;Signal;HPM_P1;HPM_P2
2022/08/04 00:01:02;;;;;;;6.63;2.80;;;25.70;66.20;;;;;;4995662;28;20058;-81
2022/08/04 00:03:35;;;;;;;6.25;2.92;;;25.70;66.20;;;;;;4994466;28;20497;-75
2022/08/04 00:06:13;;;;;;;5.00;2.20;;;25.60;66.30;;;;;;4990439;28;20505;-75
2022/08/04 00:08:48;;;;;;;5.15;2.30;;;25.60;66.10;;;;;;4993690;28;20072;-77
2022/08/04 00:11:21;;;;;;;7.47;3.13;;;25.60;66.30;;;;;;4996755;28;20030;-76
2022/08/04 00:14:02;;;;;;;9.63;2.40;;;25.60;66.30;;;;;;4994730;28;20022;-76
2022/08/04 00:16:34;;;;;;;5.22;2.85;;;25.60;66.60;;;;;;4988695;28;20061;-76
2022/08/04 00:19:03;;;;;;;8.55;2.78;;;25.50;66.50;;;;;;4993199;28;20033;-76
2022/08/04 00:21:33;;;;;;;5.47;2.47;;;25.50;66.50;;;;;;4992977;28;20026;-75
2022/08/04 00:24:01;;;;;;;6.88;2.55;;;25.50;66.40;;;;;;4992096;28;20081;-76
2022/08/04 00:26:27;;;;;;;7.10;2.63;;;25.50;66.10;;;;;;4990941;28;20030;-76
2022/08/04 00:28:52;;;;;;;4.43;2.10;;;25.50;66.50;;;;;;4990456;28;20038;-76
2022/08/04 00:31:18;;;;;;;6.45;2.45;;;25.40;66.60;;;;;;4977685;28;20038;-76
2022/08/04 00:33:45;;;;;;;6.43;3.00;;;25.40;66.70;;;;;;4987159;28;20023;-76
2022/08/04 00:36:11;;;;;;;5.78;3.20;;;25.40;66.90;;;;;;4979318;28;20030;-76
2022/08/04 00:38:40;;;;;;;9.48;2.60;;;25.30;67.00;;;;;;4994629;28;20026;-76
2022/08/04 00:41:05;;;;;;;5.28;2.67;;;25.30;67.10;;;;;;4990718;28;20432;-77
2022/08/04 00:43:46;;;;;;;5.88;2.90;;;25.30;67.20;;;;;;4992637;28;20181;-76
2022/08/04 00:46:43;;;;;;;6.35;3.10;;;25.30;67.20;;;;;;4988390;28;20054;-77
2022/08/04 00:49:27;;;;;;;6.97;2.85;;;25.30;67.30;;;;;;4989862;28;20030;-76
2022/08/04 00:52:10;;;;;;;5.30;2.63;;;25.20;67.10;;;;;;4989667;28;20061;-75
2022/08/04 00:55:17;;;;;;;5.05;2.15;;;25.20;66.40;;;;;;4971704;28;20027;-75
2022/08/04 00:58:24;;;;;;;5.35;2.75;;;25.10;67.00;;;;;;4988773;28;20112;-76
2022/08/04 01:01:02;;;;;;;8.73;2.47;;;25.10;67.20;;;;;;4971459;28;20038;-76
2022/08/04 01:03:58;;;;;;;4.22;2.47;;;25.10;67.30;;;;;;4987999;28;20058;-75
2022/08/04 01:06:40;;;;;;;7.10;2.88;;;25.10;67.50;;;;;;4988869;28;20084;-76
2022/08/04 01:09:38;;;;;;;6.20;2.50;;;25.10;67.50;;;;;;4991102;28;20022;-76
2022/08/04 01:12:09;;;;;;;4.70;2.78;;;25.00;67.50;;;;;;4988220;28;20065;-76
2022/08/04 01:15:04;;;;;;;8.27;2.63;;;25.00;67.20;;;;;;4989636;28;20165;-76
2022/08/04 01:17:51;;;;;;;7.93;2.25;;;24.90;67.20;;;;;;4973375;28;20038;-76
2022/08/04 01:20:23;;;;;;;3.28;1.70;;;25.00;66.70;;;;;;4976975;28;20027;-76
2022/08/04 01:23:07;;;;;;;6.60;2.90;;;24.90;66.90;;;;;;4982906;28;20022;-77
2022/08/04 01:26:26;;;;;;;6.90;2.50;;;24.90;67.40;;;;;;4998867;28;20081;-75
2022/08/04 01:29:04;;;;;;;5.65;2.80;;;24.90;66.60;;;;;;4919814;29;20032;-75
2022/08/04 01:31:54;;;;;;;4.72;2.22;;;24.80;67.20;;;;;;4999191;28;20038;-76
2022/08/04 01:34:22;;;;;;;8.23;2.65;;;24.80;67.00;;;;;;5009361;28;20324;-77
2022/08/04 01:37:16;;;;;;;5.53;2.10;;;24.80;67.20;;;;;;5002420;28;20027;-75
2022/08/04 01:40:03;;;;;;;7.18;2.50;;;24.70;67.00;;;;;;4993412;28;20128;-77
2022/08/04 01:42:34;;;;;;;5.03;2.42;;;24.70;67.30;;;;;;5002303;28;20034;-77
2022/08/04 01:45:08;;;;;;;8.68;3.55;;;24.70;67.00;;;;;;4990193;28;20026;-76
2022/08/04 01:47:36;;;;;;;5.82;2.00;;;24.70;67.30;;;;;;5002040;28;20425;-76
2022/08/04 01:50:12;;;;;;;5.95;2.67;;;24.70;67.10;;;;;;5003107;28;20028;-76
2022/08/04 01:52:40;;;;;;;4.93;2.40;;;24.70;67.40;;;;;;5000558;28;20027;-76
2022/08/04 01:55:11;;;;;;;7.15;2.75;;;24.70;67.40;;;;;;5004473;28;20568;-75
2022/08/04 01:57:42;;;;;;;7.72;2.97;;;24.70;66.90;;;;;;4996960;28;20031;-76
2022/08/04 02:00:12;;;;;;;8.30;2.80;;;24.70;66.70;;;;;;4997543;28;20054;-76
2022/08/04 02:02:38;;;;;;;5.85;2.83;;;24.70;67.40;;;;;;4997865;28;20026;-76
2022/08/04 02:05:05;;;;;;;6.30;2.58;;;24.70;67.00;;;;;;4997923;28;20452;-76
2022/08/04 02:07:46;;;;;;;5.40;2.03;;;24.70;67.40;;;;;;4999301;28;20835;-76
2022/08/04 02:10:59;;;;;;;10.43;3.15;;;24.70;66.80;;;;;;4998676;28;20093;-77
2022/08/04 02:13:57;;;;;;;5.63;2.50;;;24.60;67.50;;;;;;4987396;28;20512;-77
2022/08/04 02:16:36;;;;;;;7.65;2.85;;;24.70;66.80;;;;;;4988386;28;20056;-78
2022/08/04 02:19:44;;;;;;;8.48;3.20;;;24.60;67.70;;;;;;4983072;28;20023;-76
2022/08/04 02:22:16;;;;;;;7.97;2.22;;;24.50;67.70;;;;;;4998849;28;20105;-78
2022/08/04 02:24:49;;;;;;;9.55;2.80;;;24.50;67.70;;;;;;5006031;28;20053;-78
2022/08/04 02:27:20;;;;;;;5.00;2.05;;;24.50;67.60;;;;;;4982348;28;20384;-78
2022/08/04 02:29:52;;;;;;;7.60;3.00;;;24.50;66.70;;;;;;4987187;28;20027;-78
2022/08/04 02:32:26;;;;;;;8.40;3.45;;;24.50;67.30;;;;;;4993678;28;20026;-78
2022/08/04 02:35:06;;;;;;;8.63;2.75;;;24.50;67.70;;;;;;5003587;28;20026;-77
2022/08/04 02:37:33;;;;;;;7.75;2.50;;;24.50;67.90;;;;;;5003385;28;20030;-77
2022/08/04 02:40:02;;;;;;;10.48;4.13;;;24.50;67.30;;;;;;4995877;28;20033;-76
2022/08/04 02:42:28;;;;;;;9.07;2.63;;;24.50;67.70;;;;;;4981450;28;20045;-77
2022/08/04 02:44:58;;;;;;;8.85;2.47;;;24.50;67.50;;;;;;5001319;28;20033;-77
2022/08/04 02:47:25;;;;;;;8.23;2.90;;;24.50;67.70;;;;;;5004022;28;20786;-78
2022/08/04 02:49:52;;;;;;;6.50;2.70;;;24.50;67.50;;;;;;5000934;28;20010;-77
2022/08/04 02:52:19;;;;;;;5.68;2.05;;;24.50;67.70;;;;;;5003047;28;20037;-76
2022/08/04 02:54:47;;;;;;;3.53;1.65;;;24.50;67.30;;;;;;4993381;28;20064;-77
2022/08/04 02:57:16;;;;;;;5.75;2.10;;;24.50;67.00;;;;;;4990520;28;20674;-77
2022/08/04 03:00:02;;;;;;;10.15;2.88;;;24.50;67.50;;;;;;4993628;28;20023;-77
2022/08/04 03:02:41;;;;;;;6.78;2.78;;;24.50;67.60;;;;;;5002679;28;20027;-78
2022/08/04 03:05:20;;;;;;;7.87;3.03;;;24.50;67.80;;;;;;4992067;28;20050;-78
2022/08/04 03:08:22;;;;;;;8.50;2.20;;;24.50;67.70;;;;;;4998079;28;20022;-78
2022/08/04 03:11:31;;;;;;;6.43;2.70;;;24.40;67.60;;;;;;5010602;28;20034;-78
2022/08/04 03:14:28;;;;;;;5.13;2.10;;;24.40;67.70;;;;;;4987070;28;20081;-75
2022/08/04 03:17:21;;;;;;;10.43;2.85;;;24.40;67.90;;;;;;4994844;28;20034;-77
2022/08/04 03:20:11;;;;;;;11.63;3.05;;;24.40;68.00;;;;;;4997038;28;20018;-76
2022/08/04 03:22:56;;;;;;;6.60;2.25;;;24.30;68.10;;;;;;4992323;28;20045;-76
2022/08/04 03:25:57;;;;;;;5.88;2.33;;;24.30;68.00;;;;;;4992076;28;20026;-76
2022/08/04 03:29:04;;;;;;;7.60;2.40;;;24.30;68.30;;;;;;4989380;28;20033;-76
2022/08/04 03:31:54;;;;;;;8.80;2.60;;;24.30;67.80;;;;;;4947520;28;20259;-76
2022/08/04 03:34:39;;;;;;;7.43;2.40;;;24.20;68.10;;;;;;4998413;28;20477;-77
2022/08/04 03:37:37;;;;;;;5.78;2.00;;;24.20;68.30;;;;;;4993708;28;20068;-77
2022/08/04 03:40:28;;;;;;;7.85;2.70;;;24.20;68.30;;;;;;4994120;28;20025;-75
2022/08/04 03:43:23;;;;;;;4.78;2.50;;;24.20;68.20;;;;;;4992026;28;20052;-75
2022/08/04 03:46:11;;;;;;;6.35;1.92;;;24.20;68.10;;;;;;4994209;28;20037;-76
2022/08/04 03:49:02;;;;;;;11.60;2.50;;;24.20;68.00;;;;;;4997818;28;20023;-75
2022/08/04 03:55:14;;;;;;;7.07;2.67;;;24.20;68.30;;;;;;5004148;28;20045;-76
2022/08/04 03:57:55;;;;;;;5.95;2.75;;;24.20;68.50;;;;;;5004625;28;20031;-77
2022/08/04 04:00:33;;;;;;;7.15;2.90;;;24.20;68.50;;;;;;4991496;28;20041;-77
2022/08/04 04:03:29;;;;;;;14.30;4.13;;;24.20;68.60;;;;;;4989927;28;20050;-77
2022/08/04 04:06:45;;;;;;;7.72;2.75;;;24.10;68.80;;;;;;4990369;28;20516;-76
2022/08/04 04:09:18;;;;;;;12.02;2.85;;;24.10;68.70;;;;;;4990235;28;20030;-77
2022/08/04 04:12:14;;;;;;;11.27;2.85;;;24.20;68.80;;;;;;4990295;28;20054;-75
2022/08/04 04:15:20;;;;;;;7.20;2.55;;;24.20;68.60;;;;;;4990481;28;20038;-76
2022/08/04 04:18:11;;;;;;;6.80;2.70;;;24.20;68.50;;;;;;4988386;28;20034;-76
2022/08/04 04:20:53;;;;;;;8.60;2.42;;;24.20;68.80;;;;;;4962651;28;20180;-75
2022/08/04 04:23:37;;;;;;;7.90;3.00;;;24.20;68.80;;;;;;4990057;28;20019;-77
2022/08/04 04:26:29;;;;;;;8.55;2.60;;;24.30;68.80;;;;;;4989198;28;20532;-77
2022/08/04 04:29:11;;;;;;;8.65;2.70;;;24.30;69.00;;;;;;4989632;28;20034;-77
2022/08/04 04:31:36;;;;;;;11.52;3.03;;;24.30;69.00;;;;;;4989575;28;20023;-77
2022/08/04 04:34:17;;;;;;;6.90;2.67;;;24.20;69.00;;;;;;4989233;28;20042;-76
2022/08/04 04:37:20;;;;;;;8.73;2.53;;;24.20;69.30;;;;;;4988915;28;20035;-78
2022/08/04 04:40:23;;;;;;;11.70;2.63;;;24.20;69.80;;;;;;4988865;28;20023;-77
2022/08/04 04:42:48;;;;;;;9.02;2.58;;;24.00;70.10;;;;;;4976386;28;20058;-76
2022/08/04 04:45:29;;;;;;;8.38;2.80;;;24.00;70.40;;;;;;4987226;28;20525;-76
2022/08/04 04:48:07;;;;;;;9.85;2.88;;;24.00;70.70;;;;;;4987968;28;20139;-76
2022/08/04 04:50:45;;;;;;;12.05;2.97;;;24.00;70.70;;;;;;4970212;28;20019;-76
2022/08/04 04:53:26;;;;;;;8.57;2.80;;;24.00;70.90;;;;;;4991372;28;20023;-76
2022/08/04 04:56:15;;;;;;;7.47;3.50;;;24.00;71.30;;;;;;4992260;28;20035;-76
2022/08/04 04:58:42;;;;;;;5.43;2.28;;;24.00;71.20;;;;;;4993525;28;20046;-77
2022/08/04 05:01:43;;;;;;;9.30;2.67;;;24.00;70.10;;;;;;4976132;28;20026;-76
2022/08/04 05:04:47;;;;;;;7.97;3.00;;;24.00;70.70;;;;;;4962950;28;20137;-76
2022/08/04 05:07:33;;;;;;;6.35;3.05;;;24.00;70.50;;;;;;4970148;28;20120;-77
2022/08/04 05:10:23;;;;;;;9.00;3.72;;;24.00;70.80;;;;;;4992952;28;20030;-77
2022/08/04 05:12:49;;;;;;;;;;;24.00;71.10;;;;;;4992871;28;20037;-77
2022/08/04 05:15:17;;;;;;;8.23;2.53;;;24.00;70.60;;;;;;4993178;28;19921;-78
2022/08/04 05:17:50;;;;;;;6.93;2.80;;;24.00;69.10;;;;;;4975708;28;20023;-77
2022/08/04 05:20:18;;;;;;;7.25;2.75;;;24.00;70.70;;;;;;4992834;28;20025;-77
2022/08/04 05:23:08;;;;;;;10.70;3.80;;;24.10;71.20;;;;;;4993581;28;20654;-77
2022/08/04 05:25:48;;;;;;;10.02;4.15;;;24.10;71.40;;;;;;4993075;28;20038;-78
2022/08/04 05:28:16;;;;;;;;;;;24.10;71.20;;;;;;4984584;28;20030;-78
2022/08/04 05:30:49;;;;;;;10.23;3.70;;;24.20;71.10;;;;;;4995001;28;19906;-78
2022/08/04 05:33:23;;;;;;;9.63;4.38;;;24.30;71.30;;;;;;4995247;28;20084;-78
2022/08/04 05:35:53;;;;;;;10.55;3.67;;;24.50;71.40;;;;;;4992924;28;20030;-77
2022/08/04 05:38:25;;;;;;;7.13;2.78;;;24.60;70.70;;;;;;4992834;28;20398;-77
2022/08/04 05:40:52;;;;;;;10.38;3.63;;;24.70;70.30;;;;;;4975074;28;20500;-77
2022/08/04 05:43:20;;;;;;;8.57;3.53;;;24.80;69.80;;;;;;4992787;28;20026;-78
2022/08/04 05:45:47;;;;;;;7.60;3.42;;;24.90;69.60;;;;;;4992892;28;20525;-77
2022/08/04 05:48:13;;;;;;;8.60;3.25;;;25.00;69.20;;;;;;4992709;28;20020;-77
2022/08/04 05:50:39;;;;;;;7.75;4.00;;;25.10;68.10;;;;;;4992333;28;20491;-77
2022/08/04 05:53:09;;;;;;;6.63;3.45;;;25.20;68.90;;;;;;4992197;28;20034;-77
2022/08/04 05:55:35;;;;;;;9.35;4.15;;;25.20;68.10;;;;;;4991715;28;20030;-77
2022/08/04 05:58:01;;;;;;;10.43;3.85;;;25.30;68.50;;;;;;4991504;28;20106;-77
2022/08/04 06:00:28;;;;;;;9.98;3.50;;;25.30;68.30;;;;;;4992133;28;20058;-80
2022/08/04 06:02:55;;;;;;;7.55;2.88;;;25.40;67.90;;;;;;4990793;28;20051;-73
2022/08/04 06:05:22;;;;;;;6.05;2.75;;;25.40;68.60;;;;;;4991267;28;20110;-73
2022/08/04 06:07:48;;;;;;;7.60;2.95;;;25.60;69.00;;;;;;4991972;28;20540;-72
2022/08/04 06:10:15;;;;;;;5.55;2.70;;;25.80;68.90;;;;;;4991224;28;20117;-73
2022/08/04 06:13:00;;;;;;;5.50;2.70;;;26.10;68.40;;;;;;4990725;28;20109;-73
2022/08/04 06:15:26;;;;;;;7.38;2.97;;;26.20;67.70;;;;;;4990091;28;20050;-71
2022/08/04 06:17:57;;;;;;;7.78;2.88;;;26.50;67.30;;;;;;4990174;28;20393;-72
2022/08/04 06:20:27;;;;;;;5.47;2.20;;;26.60;66.80;;;;;;4991538;28;20019;-72
2022/08/04 06:23:00;;;;;;;6.63;2.38;;;26.70;66.30;;;;;;4991147;28;20816;-72
2022/08/04 06:25:32;;;;;;;6.25;2.40;;;26.80;66.10;;;;;;4989961;28;20030;-72
2022/08/04 06:28:00;;;;;;;5.78;2.10;;;26.90;65.90;;;;;;4991298;28;20026;-72
2022/08/04 06:30:29;;;;;;;5.22;2.60;;;27.00;65.60;;;;;;4991017;28;20104;-73
2022/08/04 06:32:56;;;;;;;6.38;2.20;;;27.10;65.40;;;;;;4990255;28;20027;-73
2022/08/04 06:35:23;;;;;;;7.18;2.83;;;27.20;65.10;;;;;;4991565;28;20042;-73
2022/08/04 06:37:52;;;;;;;7.18;2.42;;;27.20;64.70;;;;;;4990744;28;20101;-72
2022/08/04 06:40:20;;;;;;;7.30;2.53;;;27.30;64.30;;;;;;4990525;28;20022;-72
2022/08/04 06:42:48;;;;;;;5.82;2.10;;;27.40;64.10;;;;;;4973034;28;20823;-71
2022/08/04 06:45:14;;;;;;;9.57;3.35;;;27.40;63.70;;;;;;4989198;28;20382;-72
2022/08/04 06:47:42;;;;;;;6.85;2.08;;;27.40;63.10;;;;;;4991096;28;20042;-70
2022/08/04 06:50:09;;;;;;;7.90;3.35;;;27.40;63.10;;;;;;4989837;28;20481;-71
2022/08/04 06:52:36;;;;;;;8.43;3.15;;;27.40;62.70;;;;;;4990441;28;20085;-71
2022/08/04 06:55:02;;;;;;;5.60;2.72;;;27.50;62.50;;;;;;4987777;28;20061;-71
2022/08/04 06:57:29;;;;;;;8.27;2.38;;;27.50;62.60;;;;;;4989306;28;20065;-70
2022/08/04 07:00:13;;;;;;;8.02;2.65;;;27.50;62.30;;;;;;4986891;28;20038;-83
2022/08/04 07:02:43;;;;;;;7.72;3.30;;;27.60;61.40;;;;;;4990333;28;20034;-86
2022/08/04 07:05:10;;;;;;;8.82;2.50;;;27.60;61.40;;;;;;4987213;28;20501;-80
2022/08/04 07:07:36;;;;;;;6.72;2.28;;;27.60;61.20;;;;;;4983912;28;20037;-76
2022/08/04 07:10:03;;;;;;;6.63;2.20;;;27.60;61.40;;;;;;4984281;28;20023;-78
2022/08/04 07:12:30;;;;;;;6.65;2.10;;;27.60;60.80;;;;;;4983669;28;20449;-76
2022/08/04 07:14:57;;;;;;;5.90;1.98;;;27.70;60.80;;;;;;4983325;28;20066;-76
2022/08/04 07:17:24;;;;;;;7.60;2.67;;;27.70;60.90;;;;;;4982754;28;20027;-79
2022/08/04 07:19:51;;;;;;;9.02;3.28;;;27.80;61.10;;;;;;4983575;28;20490;-75
2022/08/04 07:22:19;;;;;;;8.63;2.40;;;27.90;60.60;;;;;;4983350;28;20674;-77
2022/08/04 07:24:45;;;;;;;7.90;2.83;;;28.00;60.40;;;;;;4984460;28;20137;-75
2022/08/04 07:27:11;;;;;;;11.00;3.50;;;28.20;60.30;;;;;;4985415;28;20033;-79
2022/08/04 07:29:39;;;;;;;7.05;2.65;;;28.30;58.90;;;;;;4985064;28;20030;-78
2022/08/04 07:32:06;;;;;;;8.30;2.95;;;28.40;58.80;;;;;;4987167;28;20023;-78
2022/08/04 07:34:32;;;;;;;10.27;2.83;;;28.50;57.70;;;;;;4965252;28;20600;-76
2022/08/04 07:36:59;;;;;;;9.85;3.25;;;28.60;57.70;;;;;;4966268;28;20401;-78
2022/08/04 07:39:30;;;;;;;12.40;3.55;;;28.50;57.30;;;;;;4994459;28;20173;-76
2022/08/04 07:42:00;;;;;;;7.68;2.58;;;28.60;56.70;;;;;;4975227;28;20038;-72
2022/08/04 07:44:26;;;;;;;8.50;3.42;;;28.70;56.20;;;;;;4984490;28;20879;-76
2022/08/04 07:46:53;;;;;;;8.43;2.50;;;28.80;55.70;;;;;;4989036;28;20022;-77
2022/08/04 07:49:20;;;;;;;8.90;3.45;;;29.00;56.10;;;;;;4986282;28;20096;-74
2022/08/04 07:51:48;;;;;;;12.07;3.75;;;29.20;56.00;;;;;;4967414;28;20774;-79
2022/08/04 07:54:14;;;;;;;8.02;2.63;;;29.40;55.20;;;;;;4986076;28;20026;-78
2022/08/04 07:56:40;;;;;;;8.35;2.47;;;29.50;55.20;;;;;;4967759;28;20026;-75
2022/08/04 07:59:06;;;;;;;9.48;2.47;;;29.60;55.50;;;;;;4981797;28;20034;-80
2022/08/04 08:01:36;;;;;;;8.50;3.20;;;29.60;54.70;;;;;;4982059;28;20031;-74
2022/08/04 08:04:03;;;;;;;10.60;3.27;;;29.70;54.00;;;;;;4981302;28;20046;-75
2022/08/04 08:06:29;;;;;;;11.30;3.55;;;29.80;53.90;;;;;;4983529;28;20156;-77
2022/08/04 08:08:59;;;;;;;11.18;3.17;;;29.90;53.60;;;;;;4982407;28;20481;-79
2022/08/04 08:11:26;;;;;;;8.70;2.78;;;30.00;53.40;;;;;;4983486;28;20492;-76
2022/08/04 08:13:52;;;;;;;8.25;2.50;;;30.00;53.60;;;;;;4982645;28;20493;-78
2022/08/04 08:16:19;;;;;;;7.38;2.70;;;30.10;53.90;;;;;;4983550;28;20066;-75
2022/08/04 08:18:46;;;;;;;9.23;2.20;;;30.10;53.30;;;;;;4982838;28;20423;-79
2022/08/04 08:21:12;;;;;;;9.20;2.08;;;30.30;54.90;;;;;;4967199;28;20030;-77
2022/08/04 08:23:38;;;;;;;6.95;2.28;;;30.40;54.10;;;;;;4983519;28;20079;-77
2022/08/04 08:26:05;;;;;;;8.30;2.88;;;30.50;54.00;;;;;;4968703;28;22747;-78
2022/08/04 08:28:31;;;;;;;6.97;2.08;;;30.60;53.20;;;;;;4986381;28;20042;-78
2022/08/04 08:30:57;;;;;;;7.00;2.25;;;30.60;52.50;;;;;;4986142;28;20389;-77
2022/08/04 08:33:23;;;;;;;7.15;2.70;;;30.60;52.30;;;;;;4986802;28;20105;-78
2022/08/04 08:35:59;;;;;;;7.15;2.22;;;30.70;51.40;;;;;;4986871;28;20122;-73
2022/08/04 08:38:54;;;;;;;10.65;3.05;;;30.80;51.70;;;;;;4987391;28;20037;-74
2022/08/04 08:41:58;;;;;;;6.50;2.10;;;30.90;51.90;;;;;;4986875;28;20023;-75
2022/08/04 08:45:00;;;;;;;9.88;2.55;;;31.00;52.40;;;;;;4987923;28;20180;-83
2022/08/04 08:47:57;;;;;;;11.10;3.00;;;31.20;52.20;;;;;;4985620;28;20097;-75
2022/08/04 08:50:30;;;;;;;7.57;2.70;;;31.20;52.80;;;;;;4986664;28;20034;-77
2022/08/04 08:53:01;;;;;;;11.10;3.50;;;31.30;52.70;;;;;;4984539;28;20077;-78
2022/08/04 08:55:51;;;;;;;8.40;2.92;;;31.40;53.20;;;;;;4986059;28;20141;-80
2022/08/04 08:58:28;;;;;;;10.85;2.58;;;31.50;52.80;;;;;;4984735;28;20030;-77
2022/08/04 09:01:20;;;;;;;7.75;2.67;;;31.60;51.90;;;;;;4984786;28;20050;-76
2022/08/04 09:04:02;;;;;;;7.03;2.42;;;31.70;51.00;;;;;;4983314;28;20047;-75
2022/08/04 09:07:04;;;;;;;6.25;2.40;;;31.60;50.90;;;;;;4982892;28;20397;-73
2022/08/04 09:09:56;;;;;;;9.70;3.33;;;31.50;50.40;;;;;;4984168;28;20642;-74
2022/08/04 09:12:49;;;;;;;6.60;3.15;;;31.40;50.70;;;;;;4960050;28;20074;-74
2022/08/04 09:15:21;;;;;;;11.27;4.05;;;31.30;51.30;;;;;;4990541;28;20034;-74
2022/08/04 09:18:06;;;;;;;8.00;3.20;;;31.40;51.80;;;;;;4991136;28;20026;-75
2022/08/04 09:20:48;;;;;;;7.40;2.30;;;31.40;53.30;;;;;;4991674;28;20132;-76
2022/08/04 09:23:33;;;;;;;8.77;2.85;;;31.60;53.30;;;;;;4991701;28;20033;-73
2022/08/04 09:26:07;;;;;;;7.05;2.90;;;31.70;52.50;;;;;;4991712;28;20040;-74
2022/08/04 09:29:02;;;;;;;10.20;3.70;;;31.60;52.90;;;;;;4992839;28;20037;-74
2022/08/04 09:31:35;;;;;;;11.25;4.20;;;31.40;52.30;;;;;;4992626;28;20026;-75
2022/08/04 09:34:37;;;;;;;11.48;5.03;;;31.30;52.90;;;;;;4992401;28;20057;-74
2022/08/04 09:37:19;;;;;;;12.90;6.28;;;31.10;52.70;;;;;;4992030;28;20030;-73
2022/08/04 09:39:55;;;;;;;6.53;2.28;;;31.00;53.00;;;;;;4992401;28;20042;-75
2022/08/04 09:42:44;;;;;;;12.88;4.93;;;31.10;55.80;;;;;;4992659;28;20467;-75
2022/08/04 09:45:29;;;;;;;6.85;2.17;;;31.20;53.80;;;;;;4974530;28;20054;-75
2022/08/04 09:48:05;;;;;;;9.98;4.03;;;31.20;55.10;;;;;;4992209;28;20053;-75
2022/08/04 09:50:37;;;;;;;12.07;4.25;;;31.40;53.70;;;;;;4992283;28;20586;-75
2022/08/04 09:53:43;;;;;;;8.73;3.28;;;31.50;53.10;;;;;;4992061;28;20059;-76
2022/08/04 09:56:22;;;;;;;7.38;3.00;;;31.70;53.50;;;;;;4953111;28;20043;-74
2022/08/04 09:59:09;;;;;;;11.63;3.78;;;31.90;53.60;;;;;;4992476;28;20029;-73
2022/08/04 10:01:37;;;;;;;8.82;3.20;;;31.90;51.20;;;;;;4991922;28;20069;-74
2022/08/04 10:04:08;;;;;;;8.63;2.28;;;31.70;50.80;;;;;;4991913;28;20137;-73
2022/08/04 10:07:08;;;;;;;8.27;2.67;;;31.50;51.50;;;;;;4991716;28;20461;-75
2022/08/04 10:09:55;;;;;;;8.65;2.78;;;31.40;52.40;;;;;;4991753;28;20034;-75
2022/08/04 10:12:46;;;;;;;7.85;1.90;;;31.50;52.80;;;;;;4992250;28;20049;-74
2022/08/04 10:15:33;;;;;;;9.38;3.40;;;31.50;51.80;;;;;;4991692;28;20030;-76
2022/08/04 10:18:14;;;;;;;5.53;2.33;;;31.40;51.80;;;;;;4991497;28;20046;-74
2022/08/04 10:20:54;;;;;;;10.43;3.17;;;31.30;53.20;;;;;;4991475;28;20027;-74
2022/08/04 10:23:44;;;;;;;6.80;1.85;;;31.20;52.20;;;;;;4991631;28;20037;-75
2022/08/04 10:26:25;;;;;;;8.10;2.22;;;31.00;51.50;;;;;;4991392;28;20026;-73
2022/08/04 10:29:03;;;;;;;6.40;2.45;;;30.90;52.20;;;;;;4991637;28;20025;-75
2022/08/04 10:31:34;;;;;;;9.20;2.20;;;30.70;52.40;;;;;;4990855;28;20117;-75
2022/08/04 10:34:08;;;;;;;9.13;2.40;;;30.50;52.50;;;;;;4990741;28;20097;-74
2022/08/04 10:36:57;;;;;;;10.45;3.03;;;30.30;52.90;;;;;;4991308;28;20041;-74
2022/08/04 10:39:31;;;;;;;10.65;2.33;;;30.20;53.80;;;;;;4992074;28;20129;-76
2022/08/04 10:42:11;;;;;;;7.63;1.90;;;30.10;54.20;;;;;;4991045;28;20022;-73
2022/08/04 10:44:45;;;;;;;9.27;2.13;;;29.90;54.70;;;;;;4991043;28;20033;-75
2022/08/04 10:47:23;;;;;;;11.77;2.85;;;29.70;56.40;;;;;;4991418;28;20030;-76
2022/08/04 10:50:00;;;;;;;10.10;2.67;;;29.60;55.80;;;;;;4990426;28;20038;-76
2022/08/04 10:52:53;;;;;;;9.95;2.33;;;29.50;56.40;;;;;;4991108;28;20396;-76
2022/08/04 10:55:30;;;;;;;14.45;2.83;;;29.30;56.40;;;;;;4990740;28;20096;-74
2022/08/04 10:58:01;;;;;;;11.18;2.95;;;29.20;57.20;;;;;;4990864;28;20085;-74
2022/08/04 11:00:34;;;;;;;8.40;2.30;;;29.00;58.40;;;;;;4991093;28;20031;-75
2022/08/04 11:03:04;;;;;;;10.02;3.22;;;28.90;59.80;;;;;;4991054;28;20130;-74
2022/08/04 11:06:02;;;;;;;8.65;2.97;;;28.70;62.30;;;;;;4990862;28;20506;-75
2022/08/04 11:08:50;;;;;;;9.43;2.40;;;28.60;63.40;;;;;;4988632;28;20042;-75
2022/08/04 11:11:38;;;;;;;6.65;1.90;;;28.40;64.40;;;;;;4990675;28;20113;-75
2022/08/04 11:14:06;;;;;;;7.53;3.03;;;28.20;65.00;;;;;;4991300;28;20157;-75
2022/08/04 11:16:44;;;;;;;8.43;3.45;;;28.10;65.90;;;;;;4990801;28;20096;-75
2022/08/04 11:19:12;;;;;;;8.10;2.90;;;27.90;66.90;;;;;;4990189;28;20597;-74
2022/08/04 11:21:51;;;;;;;3.25;1.30;;;27.80;67.00;;;;;;4990204;28;20105;-75
2022/08/04 11:24:25;;;;;;;6.80;2.25;;;27.80;66.20;;;;;;4990566;28;20085;-75
2022/08/04 11:27:02;;;;;;;3.97;1.38;;;27.60;69.00;;;;;;4990797;28;20026;-75
2022/08/04 11:29:41;;;;;;;5.57;1.85;;;27.60;67.00;;;;;;4990958;28;20026;-75
2022/08/04 11:32:13;;;;;;;5.30;1.80;;;27.60;65.90;;;;;;4990215;28;20420;-75
2022/08/04 11:34:45;;;;;;;13.48;2.67;;;27.40;66.60;;;;;;4989928;28;20038;-76
2022/08/04 11:37:36;;;;;;;5.68;1.98;;;27.20;72.00;;;;;;4989264;28;20097;-75
2022/08/04 11:40:14;;;;;;;4.32;1.40;;;27.20;72.50;;;;;;4990426;28;20453;-76
2022/08/04 11:42:47;;;;;;;6.65;2.80;;;27.20;69.10;;;;;;4990442;28;20023;-75
2022/08/04 11:45:18;;;;;;;7.18;2.13;;;27.20;72.00;;;;;;4990055;28;20045;-75
2022/08/04 11:47:44;;;;;;;8.55;3.08;;;27.30;72.30;;;;;;4990555;28;20483;-75
2022/08/04 11:50:38;;;;;;;7.93;3.00;;;27.40;74.00;;;;;;4990443;28;20030;-76
2022/08/04 11:53:05;;;;;;;6.63;2.75;;;27.30;74.70;;;;;;4990517;28;20022;-76
2022/08/04 11:55:32;;;;;;;8.68;2.90;;;27.20;75.10;;;;;;4989619;28;20034;-74
2022/08/04 11:57:58;;;;;;;4.70;2.03;;;27.10;75.40;;;;;;4988322;28;20680;-74
2022/08/04 12:00:26;;;;;;;3.75;1.20;;;27.10;73.30;;;;;;4989244;28;20109;-75
2022/08/04 12:03:29;;;;;;;3.55;1.42;;;27.10;69.50;;;;;;4980693;28;20033;-76
2022/08/04 12:06:16;;;;;;;4.60;1.40;;;27.20;68.10;;;;;;4989903;28;20038;-75
2022/08/04 12:09:01;;;;;;;5.43;1.73;;;27.20;66.90;;;;;;4990233;28;20072;-75
2022/08/04 12:11:50;;;;;;;5.35;1.67;;;27.20;66.30;;;;;;4990000;28;20076;-76
2022/08/04 12:14:54;;;;;;;4.53;2.20;;;27.30;66.10;;;;;;4989620;28;20034;-76
2022/08/04 12:17:50;;;;;;;6.22;2.00;;;27.30;66.40;;;;;;4970565;28;20034;-77
2022/08/04 12:20:22;;;;;;;6.68;1.75;;;27.20;66.20;;;;;;4979464;28;20030;-78
2022/08/04 12:22:50;;;;;;;5.70;1.80;;;27.20;65.70;;;;;;4989365;28;20030;-77
2022/08/04 12:25:28;;;;;;;5.20;2.00;;;27.20;65.60;;;;;;4989656;28;20033;-77
2022/08/04 12:28:17;;;;;;;4.72;1.45;;;27.30;66.50;;;;;;4990181;28;20109;-78
2022/08/04 12:30:48;;;;;;;6.40;1.80;;;27.40;65.50;;;;;;4989684;28;20073;-77
2022/08/04 12:33:23;;;;;;;7.70;2.38;;;27.50;66.70;;;;;;4989431;28;20128;-77
2022/08/04 12:35:59;;;;;;;4.38;2.10;;;27.60;67.00;;;;;;4989699;28;20042;-77
2022/08/04 12:38:31;;;;;;;10.35;2.83;;;27.70;65.30;;;;;;4989512;28;20022;-78
2022/08/04 12:40:58;;;;;;;4.85;1.77;;;27.70;68.70;;;;;;4989512;28;20026;-78
2022/08/04 12:43:33;;;;;;;5.90;1.73;;;27.80;68.50;;;;;;4989355;28;20030;-78
2022/08/04 12:46:07;;;;;;;7.65;2.40;;;27.80;67.70;;;;;;4987737;28;20042;-79
2022/08/04 12:48:35;;;;;;;6.80;2.33;;;27.70;70.00;;;;;;4989086;28;20058;-78
2022/08/04 12:51:02;;;;;;;4.70;1.88;;;27.70;71.00;;;;;;4988662;28;20031;-78
2022/08/04 12:53:34;;;;;;;4.88;2.17;;;27.70;69.40;;;;;;4989186;28;20026;-79
2022/08/04 12:56:01;;;;;;;8.73;2.38;;;27.80;69.20;;;;;;4989489;28;20046;-78
2022/08/04 12:58:35;;;;;;;8.63;1.95;;;28.00;71.10;;;;;;4989678;28;20512;-79
2022/08/04 13:01:21;;;;;;;6.65;2.28;;;28.20;65.90;;;;;;4989514;28;20109;-78
2022/08/04 13:03:54;;;;;;;8.05;3.33;;;28.40;66.40;;;;;;4990011;28;20101;-78
2022/08/04 13:06:33;;;;;;;6.45;2.47;;;28.40;67.90;;;;;;4988542;28;20033;-78
2022/08/04 13:09:21;;;;;;;6.75;2.75;;;28.40;67.50;;;;;;4984653;28;20031;-78
2022/08/04 13:11:55;;;;;;;3.97;2.10;;;28.40;67.30;;;;;;4989836;28;20030;-81
2022/08/04 13:14:23;;;;;;;6.93;2.60;;;28.40;66.90;;;;;;4993174;28;20539;-79
2022/08/04 13:16:58;;;;;;;7.88;2.38;;;28.40;66.00;;;;;;4993894;28;20030;-80
2022/08/04 13:19:24;;;;;;;6.20;1.60;;;28.50;65.40;;;;;;4988066;28;20065;-80
2022/08/04 13:21:52;;;;;;;5.78;2.13;;;28.70;65.80;;;;;;4990235;28;20026;-79
2022/08/04 13:24:26;;;;;;;7.63;2.47;;;28.90;66.00;;;;;;4991349;28;20034;-80
2022/08/04 13:27:08;;;;;;;4.78;2.10;;;29.30;64.20;;;;;;4991857;28;20485;-79
2022/08/04 13:29:45;;;;;;;7.65;2.45;;;29.60;62.10;;;;;;4990144;28;20026;-79
2022/08/04 13:32:20;;;;;;;9.95;2.78;;;29.70;62.30;;;;;;4991176;28;20038;-77
2022/08/04 13:34:48;;;;;;;4.82;1.40;;;29.90;60.20;;;;;;4977833;28;20042;-77
2022/08/04 13:37:14;;;;;;;4.82;2.05;;;30.00;60.40;;;;;;4992110;28;20022;-76
2022/08/04 13:39:45;;;;;;;5.90;2.45;;;30.00;60.50;;;;;;4990439;28;20041;-77
2022/08/04 13:42:13;;;;;;;3.72;1.70;;;30.00;57.80;;;;;;4990935;28;20019;-77